sensor_id;sensor_type;location;lat;lon;timestamp;P1;durP1;ratioP1;P2;durP2;ratioP2
19329;SDS011;9799;48.214;16.388;2023-04-21T00:00:50;24.20;;;20.83;;
19329;SDS011;9799;48.214;16.388;2023-04-21T00:04:12;25.03;;;21.03;;
19329;SDS011;9799;48.214;16.388;2023-04-21T00:07:35;28.83;;;21.20;;
19329;SDS011;9799;48.214;16.388;2023-04-21T00:10:57;24.83;;;20.63;;
19329;SDS011;9799;48.214;16.388;2023-04-21T00:14:18;27.40;;;20.83;;
19329;SDS011;9799;48.214;16.388;2023-04-21T00:17:39;25.73;;;20.33;;
19329;SDS011;9799;48.214;16.388;2023-04-21T00:21:01;27.60;;;20.70;;
19329;SDS011;9799;48.214;16.388;2023-04-21T00:24:23;25.57;;;20.90;;
19329;SDS011;9799;48.214;16.388;2023-04-21T00:27:45;25.27;;;20.40;;
19329;SDS011;9799;48.214;16.388;2023-04-21T00:31:06;26.03;;;20.97;;
19329;SDS011;9799;48.214;16.388;2023-04-21T00:34:27;25.83;;;19.37;;
19329;SDS011;9799;48.214;16.388;2023-04-21T00:37:48;23.07;;;18.77;;
19329;SDS011;9799;48.214;16.388;2023-04-21T00:41:11;21.40;;;18.17;;
19329;SDS011;9799;48.214;16.388;2023-04-21T00:44:32;21.67;;;18.30;;
19329;SDS011;9799;48.214;16.388;2023-04-21T00:47:53;21.77;;;18.63;;
19329;SDS011;9799;48.214;16.388;2023-04-21T00:51:14;21.17;;;18.00;;
19329;SDS011;9799;48.214;16.388;2023-04-21T00:54:36;24.37;;;18.43;;
19329;SDS011;9799;48.214;16.388;2023-04-21T00:57:59;20.83;;;18.10;;
19329;SDS011;9799;48.214;16.388;2023-04-21T01:01:22;21.40;;;18.50;;
19329;SDS011;9799;48.214;16.388;2023-04-21T01:04:43;22.40;;;18.07;;
19329;SDS011;9799;48.214;16.388;2023-04-21T01:08:05;23.10;;;18.93;;
19329;SDS011;9799;48.214;16.388;2023-04-21T01:11:26;22.13;;;18.80;;
19329;SDS011;9799;48.214;16.388;2023-04-21T01:14:49;22.53;;;18.50;;
19329;SDS011;9799;48.214;16.388;2023-04-21T01:18:10;20.63;;;18.43;;
19329;SDS011;9799;48.214;16.388;2023-04-21T01:21:37;22.20;;;19.13;;
19329;SDS011;9799;48.214;16.388;2023-04-21T01:24:59;24.13;;;18.80;;
19329;SDS011;9799;48.214;16.388;2023-04-21T01:28:21;26.03;;;20.73;;
19329;SDS011;9799;48.214;16.388;2023-04-21T01:31:42;24.00;;;20.10;;
19329;SDS011;9799;48.214;16.388;2023-04-21T01:35:06;25.37;;;18.77;;
19329;SDS011;9799;48.214;16.388;2023-04-21T01:38:29;21.93;;;18.27;;
19329;SDS011;9799;48.214;16.388;2023-04-21T01:41:50;24.57;;;19.13;;
19329;SDS011;9799;48.214;16.388;2023-04-21T01:45:13;22.97;;;18.20;;
19329;SDS011;9799;48.214;16.388;2023-04-21T01:48:35;24.13;;;19.07;;
19329;SDS011;9799;48.214;16.388;2023-04-21T01:51:57;21.83;;;18.73;;
19329;SDS011;9799;48.214;16.388;2023-04-21T01:55:19;24.50;;;19.23;;
19329;SDS011;9799;48.214;16.388;2023-04-21T01:58:40;25.67;;;19.43;;
19329;SDS011;9799;48.214;16.388;2023-04-21T02:02:02;21.93;;;18.63;;
19329;SDS011;9799;48.214;16.388;2023-04-21T02:05:23;22.43;;;19.97;;
19329;SDS011;9799;48.214;16.388;2023-04-21T02:08:44;24.27;;;19.87;;
19329;SDS011;9799;48.214;16.388;2023-04-21T02:12:07;24.87;;;19.40;;
19329;SDS011;9799;48.214;16.388;2023-04-21T02:15:28;26.17;;;19.87;;
19329;SDS011;9799;48.214;16.388;2023-04-21T02:18:49;25.93;;;20.07;;
19329;SDS011;9799;48.214;16.388;2023-04-21T02:22:12;23.53;;;18.80;;
19329;SDS011;9799;48.214;16.388;2023-04-21T02:25:33;23.43;;;19.27;;
19329;SDS011;9799;48.214;16.388;2023-04-21T02:28:55;23.00;;;18.57;;
19329;SDS011;9799;48.214;16.388;2023-04-21T02:32:16;26.73;;;18.77;;
19329;SDS011;9799;48.214;16.388;2023-04-21T02:35:38;25.37;;;19.40;;
19329;SDS011;9799;48.214;16.388;2023-04-21T02:38:59;23.40;;;18.87;;
19329;SDS011;9799;48.214;16.388;2023-04-21T02:42:21;21.77;;;18.63;;
19329;SDS011;9799;48.214;16.388;2023-04-21T02:45:43;21.13;;;18.87;;
19329;SDS011;9799;48.214;16.388;2023-04-21T02:49:04;26.67;;;18.20;;
19329;SDS011;9799;48.214;16.388;2023-04-21T02:52:25;23.77;;;20.10;;
19329;SDS011;9799;48.214;16.388;2023-04-21T02:55:47;26.27;;;20.37;;
19329;SDS011;9799;48.214;16.388;2023-04-21T02:59:08;21.93;;;19.17;;
19329;SDS011;9799;48.214;16.388;2023-04-21T03:02:31;26.13;;;19.60;;
19329;SDS011;9799;48.214;16.388;2023-04-21T03:05:54;30.60;;;20.63;;
19329;SDS011;9799;48.214;16.388;2023-04-21T03:09:16;24.30;;;19.80;;
19329;SDS011;9799;48.214;16.388;2023-04-21T03:12:37;23.10;;;18.73;;
19329;SDS011;9799;48.214;16.388;2023-04-21T03:15:59;26.20;;;20.57;;
19329;SDS011;9799;48.214;16.388;2023-04-21T03:19:21;25.17;;;19.07;;
19329;SDS011;9799;48.214;16.388;2023-04-21T03:22:42;23.57;;;19.40;;
19329;SDS011;9799;48.214;16.388;2023-04-21T03:26:05;25.87;;;19.17;;
19329;SDS011;9799;48.214;16.388;2023-04-21T03:29:26;22.30;;;18.57;;
19329;SDS011;9799;48.214;16.388;2023-04-21T03:32:47;28.53;;;19.37;;
19329;SDS011;9799;48.214;16.388;2023-04-21T03:36:11;24.00;;;19.47;;
19329;SDS011;9799;48.214;16.388;2023-04-21T03:39:32;26.43;;;21.30;;
19329;SDS011;9799;48.214;16.388;2023-04-21T03:42:53;24.67;;;19.67;;
19329;SDS011;9799;48.214;16.388;2023-04-21T03:46:17;23.30;;;19.40;;
19329;SDS011;9799;48.214;16.388;2023-04-21T03:49:39;26.23;;;19.67;;
19329;SDS011;9799;48.214;16.388;2023-04-21T03:53:01;23.10;;;19.23;;
19329;SDS011;9799;48.214;16.388;2023-04-21T03:56:23;27.03;;;21.67;;
19329;SDS011;9799;48.214;16.388;2023-04-21T03:59:44;28.63;;;22.03;;
19329;SDS011;9799;48.214;16.388;2023-04-21T04:03:05;24.57;;;20.27;;
19329;SDS011;9799;48.214;16.388;2023-04-21T04:06:26;23.40;;;19.93;;
19329;SDS011;9799;48.214;16.388;2023-04-21T04:09:49;24.53;;;20.30;;
19329;SDS011;9799;48.214;16.388;2023-04-21T04:13:10;25.37;;;19.87;;
19329;SDS011;9799;48.214;16.388;2023-04-21T04:16:32;24.57;;;20.17;;
19329;SDS011;9799;48.214;16.388;2023-04-21T04:19:54;33.73;;;22.57;;
19329;SDS011;9799;48.214;16.388;2023-04-21T04:23:16;28.33;;;22.57;;
19329;SDS011;9799;48.214;16.388;2023-04-21T04:26:38;29.77;;;22.87;;
19329;SDS011;9799;48.214;16.388;2023-04-21T04:29:59;31.67;;;23.13;;
19329;SDS011;9799;48.214;16.388;2023-04-21T04:33:21;37.60;;;22.10;;
19329;SDS011;9799;48.214;16.388;2023-04-21T04:36:42;27.63;;;22.60;;
19329;SDS011;9799;48.214;16.388;2023-04-21T04:40:04;29.47;;;22.33;;
19329;SDS011;9799;48.214;16.388;2023-04-21T04:43:29;31.83;;;22.37;;
19329;SDS011;9799;48.214;16.388;2023-04-21T04:46:51;31.33;;;24.03;;
19329;SDS011;9799;48.214;16.388;2023-04-21T04:50:13;28.40;;;21.33;;
19329;SDS011;9799;48.214;16.388;2023-04-21T04:53:34;30.60;;;21.57;;
19329;SDS011;9799;48.214;16.388;2023-04-21T04:56:55;25.23;;;20.80;;
19329;SDS011;9799;48.214;16.388;2023-04-21T05:00:18;27.77;;;20.93;;
19329;SDS011;9799;48.214;16.388;2023-04-21T05:03:40;29.47;;;22.40;;
19329;SDS011;9799;48.214;16.388;2023-04-21T05:07:02;30.20;;;20.83;;
19329;SDS011;9799;48.214;16.388;2023-04-21T05:10:24;41.43;;;22.83;;
19329;SDS011;9799;48.214;16.388;2023-04-21T05:13:45;27.93;;;23.23;;
19329;SDS011;9799;48.214;16.388;2023-04-21T05:17:08;32.53;;;22.27;;
19329;SDS011;9799;48.214;16.388;2023-04-21T05:20:29;29.27;;;22.60;;
19329;SDS011;9799;48.214;16.388;2023-04-21T05:23:50;26.43;;;21.87;;
19329;SDS011;9799;48.214;16.388;2023-04-21T05:27:11;27.13;;;22.50;;
19329;SDS011;9799;48.214;16.388;2023-04-21T05:30:33;29.83;;;22.77;;
19329;SDS011;9799;48.214;16.388;2023-04-21T05:33:55;52.57;;;38.17;;
19329;SDS011;9799;48.214;16.388;2023-04-21T05:37:16;31.63;;;25.07;;
19329;SDS011;9799;48.214;16.388;2023-04-21T05:40:38;28.60;;;22.80;;
19329;SDS011;9799;48.214;16.388;2023-04-21T05:43:59;33.30;;;22.63;;
19329;SDS011;9799;48.214;16.388;2023-04-21T05:47:20;29.03;;;22.57;;
19329;SDS011;9799;48.214;16.388;2023-04-21T05:50:43;29.37;;;22.23;;
19329;SDS011;9799;48.214;16.388;2023-04-21T05:54:04;32.77;;;24.20;;
19329;SDS011;9799;48.214;16.388;2023-04-21T05:57:25;32.73;;;24.20;;
19329;SDS011;9799;48.214;16.388;2023-04-21T06:00:46;29.50;;;23.77;;
19329;SDS011;9799;48.214;16.388;2023-04-21T06:04:08;33.23;;;23.83;;
19329;SDS011;9799;48.214;16.388;2023-04-21T06:07:31;32.23;;;23.63;;
19329;SDS011;9799;48.214;16.388;2023-04-21T06:10:55;28.90;;;23.93;;
19329;SDS011;9799;48.214;16.388;2023-04-21T06:14:16;30.50;;;23.77;;
19329;SDS011;9799;48.214;16.388;2023-04-21T06:17:38;33.13;;;24.43;;
19329;SDS011;9799;48.214;16.388;2023-04-21T06:20:59;31.73;;;24.87;;
19329;SDS011;9799;48.214;16.388;2023-04-21T06:24:21;31.07;;;23.30;;
19329;SDS011;9799;48.214;16.388;2023-04-21T06:27:44;34.03;;;24.37;;
19329;SDS011;9799;48.214;16.388;2023-04-21T06:31:06;37.97;;;25.17;;
19329;SDS011;9799;48.214;16.388;2023-04-21T06:34:27;26.53;;;22.00;;
19329;SDS011;9799;48.214;16.388;2023-04-21T06:37:49;34.13;;;22.43;;
19329;SDS011;9799;48.214;16.388;2023-04-21T06:41:14;29.23;;;22.90;;
19329;SDS011;9799;48.214;16.388;2023-04-21T06:44:35;32.20;;;24.83;;
19329;SDS011;9799;48.214;16.388;2023-04-21T06:47:57;31.07;;;23.57;;
19329;SDS011;9799;48.214;16.388;2023-04-21T06:51:18;33.33;;;23.77;;
19329;SDS011;9799;48.214;16.388;2023-04-21T06:54:39;29.23;;;24.37;;
19329;SDS011;9799;48.214;16.388;2023-04-21T06:58:02;31.20;;;24.27;;
19329;SDS011;9799;48.214;16.388;2023-04-21T07:01:23;30.60;;;21.43;;
19329;SDS011;9799;48.214;16.388;2023-04-21T07:04:44;34.03;;;23.43;;
19329;SDS011;9799;48.214;16.388;2023-04-21T07:08:05;29.17;;;21.23;;
19329;SDS011;9799;48.214;16.388;2023-04-21T07:11:27;31.03;;;20.73;;
19329;SDS011;9799;48.214;16.388;2023-04-21T07:14:49;29.53;;;19.13;;
19329;SDS011;9799;48.214;16.388;2023-04-21T07:18:10;26.50;;;18.70;;
19329;SDS011;9799;48.214;16.388;2023-04-21T07:21:32;29.63;;;22.67;;
19329;SDS011;9799;48.214;16.388;2023-04-21T07:24:54;22.63;;;19.17;;
19329;SDS011;9799;48.214;16.388;2023-04-21T07:28:15;36.10;;;18.73;;
19329;SDS011;9799;48.214;16.388;2023-04-21T07:31:38;31.27;;;17.20;;
19329;SDS011;9799;48.214;16.388;2023-04-21T07:34:59;21.73;;;15.60;;
19329;SDS011;9799;48.214;16.388;2023-04-21T07:38:21;19.80;;;15.33;;
19329;SDS011;9799;48.214;16.388;2023-04-21T07:41:42;19.77;;;14.63;;
19329;SDS011;9799;48.214;16.388;2023-04-21T07:45:05;21.40;;;13.80;;
19329;SDS011;9799;48.214;16.388;2023-04-21T07:48:27;32.40;;;14.83;;
19329;SDS011;9799;48.214;16.388;2023-04-21T07:51:49;15.67;;;13.53;;
19329;SDS011;9799;48.214;16.388;2023-04-21T07:55:10;23.93;;;13.27;;
19329;SDS011;9799;48.214;16.388;2023-04-21T07:58:31;20.57;;;12.87;;
19329;SDS011;9799;48.214;16.388;2023-04-21T08:01:52;16.20;;;11.53;;
19329;SDS011;9799;48.214;16.388;2023-04-21T08:05:15;17.43;;;11.67;;
19329;SDS011;9799;48.214;16.388;2023-04-21T08:08:36;20.93;;;16.07;;
19329;SDS011;9799;48.214;16.388;2023-04-21T08:11:58;24.33;;;14.83;;
19329;SDS011;9799;48.214;16.388;2023-04-21T08:15:20;14.70;;;11.63;;
19329;SDS011;9799;48.214;16.388;2023-04-21T08:18:42;14.93;;;11.97;;
19329;SDS011;9799;48.214;16.388;2023-04-21T08:22:04;17.20;;;11.40;;
19329;SDS011;9799;48.214;16.388;2023-04-21T08:25:25;15.30;;;12.10;;
19329;SDS011;9799;48.214;16.388;2023-04-21T08:28:46;22.27;;;12.60;;
19329;SDS011;9799;48.214;16.388;2023-04-21T08:32:08;17.47;;;10.73;;
19329;SDS011;9799;48.214;16.388;2023-04-21T08:35:29;13.77;;;10.20;;
19329;SDS011;9799;48.214;16.388;2023-04-21T08:38:52;13.33;;;9.93;;
19329;SDS011;9799;48.214;16.388;2023-04-21T08:42:13;20.20;;;9.63;;
19329;SDS011;9799;48.214;16.388;2023-04-21T08:45:36;14.53;;;9.37;;
19329;SDS011;9799;48.214;16.388;2023-04-21T08:48:58;16.50;;;8.63;;
19329;SDS011;9799;48.214;16.388;2023-04-21T08:52:20;16.97;;;10.80;;
19329;SDS011;9799;48.214;16.388;2023-04-21T08:55:43;16.43;;;9.03;;
19329;SDS011;9799;48.214;16.388;2023-04-21T08:59:05;16.33;;;9.00;;
19329;SDS011;9799;48.214;16.388;2023-04-21T09:02:26;9.93;;;8.40;;
19329;SDS011;9799;48.214;16.388;2023-04-21T09:05:55;13.17;;;7.67;;
19329;SDS011;9799;48.214;16.388;2023-04-21T09:09:17;11.43;;;8.33;;
19329;SDS011;9799;48.214;16.388;2023-04-21T09:12:40;14.40;;;9.63;;
19329;SDS011;9799;48.214;16.388;2023-04-21T09:16:02;16.93;;;8.17;;
19329;SDS011;9799;48.214;16.388;2023-04-21T09:19:25;14.53;;;8.30;;
19329;SDS011;9799;48.214;16.388;2023-04-21T09:22:46;15.83;;;8.53;;
19329;SDS011;9799;48.214;16.388;2023-04-21T09:26:09;8.53;;;6.80;;
19329;SDS011;9799;48.214;16.388;2023-04-21T09:29:32;9.90;;;6.90;;
19329;SDS011;9799;48.214;16.388;2023-04-21T09:32:55;18.40;;;9.40;;
19329;SDS011;9799;48.214;16.388;2023-04-21T09:36:17;9.80;;;7.20;;
19329;SDS011;9799;48.214;16.388;2023-04-21T09:39:40;14.30;;;11.63;;
19329;SDS011;9799;48.214;16.388;2023-04-21T09:43:05;8.93;;;6.20;;
19329;SDS011;9799;48.214;16.388;2023-04-21T09:46:28;9.70;;;5.97;;
19329;SDS011;9799;48.214;16.388;2023-04-21T09:49:51;18.43;;;6.30;;
19329;SDS011;9799;48.214;16.388;2023-04-21T09:53:13;14.10;;;6.13;;
19329;SDS011;9799;48.214;16.388;2023-04-21T09:56:36;12.03;;;7.40;;
19329;SDS011;9799;48.214;16.388;2023-04-21T10:00:01;12.13;;;7.43;;
19329;SDS011;9799;48.214;16.388;2023-04-21T10:03:26;13.47;;;7.63;;
19329;SDS011;9799;48.214;16.388;2023-04-21T10:06:48;14.87;;;6.70;;
19329;SDS011;9799;48.214;16.388;2023-04-21T10:10:12;37.40;;;9.83;;
19329;SDS011;9799;48.214;16.388;2023-04-21T10:13:40;11.43;;;7.10;;
19329;SDS011;9799;48.214;16.388;2023-04-21T10:17:02;13.33;;;6.20;;
19329;SDS011;9799;48.214;16.388;2023-04-21T10:20:26;16.93;;;7.30;;
19329;SDS011;9799;48.214;16.388;2023-04-21T10:23:49;15.20;;;4.97;;
19329;SDS011;9799;48.214;16.388;2023-04-21T10:27:12;11.77;;;4.73;;
19329;SDS011;9799;48.214;16.388;2023-04-21T10:30:51;23.80;;;8.90;;
19329;SDS011;9799;48.214;16.388;2023-04-21T10:34:48;12.10;;;6.67;;
19329;SDS011;9799;48.214;16.388;2023-04-21T10:38:10;11.67;;;6.43;;
19329;SDS011;9799;48.214;16.388;2023-04-21T10:41:55;10.93;;;6.07;;
19329;SDS011;9799;48.214;16.388;2023-04-21T10:45:17;12.37;;;6.13;;
19329;SDS011;9799;48.214;16.388;2023-04-21T10:48:38;11.47;;;6.47;;
19329;SDS011;9799;48.214;16.388;2023-04-21T10:52:03;10.63;;;6.33;;
19329;SDS011;9799;48.214;16.388;2023-04-21T10:55:28;16.97;;;6.67;;
19329;SDS011;9799;48.214;16.388;2023-04-21T10:58:50;10.47;;;5.23;;
19329;SDS011;9799;48.214;16.388;2023-04-21T11:02:13;14.53;;;6.03;;
19329;SDS011;9799;48.214;16.388;2023-04-21T11:05:38;10.27;;;5.47;;
19329;SDS011;9799;48.214;16.388;2023-04-21T11:09:01;7.93;;;4.80;;
19329;SDS011;9799;48.214;16.388;2023-04-21T11:12:25;10.57;;;6.10;;
19329;SDS011;9799;48.214;16.388;2023-04-21T11:15:54;8.67;;;5.60;;
19329;SDS011;9799;48.214;16.388;2023-04-21T11:19:16;13.63;;;5.73;;
19329;SDS011;9799;48.214;16.388;2023-04-21T11:22:39;14.77;;;6.80;;
19329;SDS011;9799;48.214;16.388;2023-04-21T11:26:00;13.37;;;6.67;;
19329;SDS011;9799;48.214;16.388;2023-04-21T11:29:22;17.87;;;8.57;;
19329;SDS011;9799;48.214;16.388;2023-04-21T11:32:44;7.27;;;5.50;;
19329;SDS011;9799;48.214;16.388;2023-04-21T11:36:06;9.70;;;5.70;;
19329;SDS011;9799;48.214;16.388;2023-04-21T11:39:28;7.47;;;5.13;;
19329;SDS011;9799;48.214;16.388;2023-04-21T11:42:49;9.52;;;4.90;;
19329;SDS011;9799;48.214;16.388;2023-04-21T11:46:12;9.07;;;5.43;;
19329;SDS011;9799;48.214;16.388;2023-04-21T11:49:42;12.07;;;5.22;;
19329;SDS011;9799;48.214;16.388;2023-04-21T11:53:05;17.10;;;6.00;;
19329;SDS011;9799;48.214;16.388;2023-04-21T11:56:26;10.02;;;4.97;;
19329;SDS011;9799;48.214;16.388;2023-04-21T11:59:47;7.13;;;4.68;;
19329;SDS011;9799;48.214;16.388;2023-04-21T12:03:11;12.63;;;5.07;;
19329;SDS011;9799;48.214;16.388;2023-04-21T12:06:36;10.85;;;7.13;;
19329;SDS011;9799;48.214;16.388;2023-04-21T12:09:57;13.25;;;5.35;;
19329;SDS011;9799;48.214;16.388;2023-04-21T12:13:21;8.25;;;4.72;;
19329;SDS011;9799;48.214;16.388;2023-04-21T12:16:42;8.93;;;5.10;;
19329;SDS011;9799;48.214;16.388;2023-04-21T12:20:06;8.40;;;5.90;;
19329;SDS011;9799;48.214;16.388;2023-04-21T12:23:28;6.18;;;4.95;;
19329;SDS011;9799;48.214;16.388;2023-04-21T12:26:49;9.40;;;4.63;;
19329;SDS011;9799;48.214;16.388;2023-04-21T12:30:11;10.27;;;5.50;;
19329;SDS011;9799;48.214;16.388;2023-04-21T12:33:33;8.20;;;5.18;;
19329;SDS011;9799;48.214;16.388;2023-04-21T12:36:55;8.43;;;6.78;;
19329;SDS011;9799;48.214;16.388;2023-04-21T12:40:16;7.50;;;4.65;;
19329;SDS011;9799;48.214;16.388;2023-04-21T12:43:38;12.57;;;5.95;;
19329;SDS011;9799;48.214;16.388;2023-04-21T12:46:59;8.30;;;4.28;;
19329;SDS011;9799;48.214;16.388;2023-04-21T12:50:20;10.60;;;5.05;;
19329;SDS011;9799;48.214;16.388;2023-04-21T12:53:43;12.32;;;4.95;;
19329;SDS011;9799;48.214;16.388;2023-04-21T12:57:04;11.15;;;4.30;;
19329;SDS011;9799;48.214;16.388;2023-04-21T13:00:26;8.50;;;4.18;;
19329;SDS011;9799;48.214;16.388;2023-04-21T13:03:48;6.68;;;4.90;;
19329;SDS011;9799;48.214;16.388;2023-04-21T13:07:09;13.43;;;4.97;;
19329;SDS011;9799;48.214;16.388;2023-04-21T13:10:32;5.00;;;3.92;;
19329;SDS011;9799;48.214;16.388;2023-04-21T13:13:54;12.07;;;4.40;;
19329;SDS011;9799;48.214;16.388;2023-04-21T13:17:15;8.02;;;4.10;;
19329;SDS011;9799;48.214;16.388;2023-04-21T13:20:36;10.50;;;4.15;;
19329;SDS011;9799;48.214;16.388;2023-04-21T13:24:00;11.02;;;4.03;;
19329;SDS011;9799;48.214;16.388;2023-04-21T13:27:28;6.05;;;4.20;;
19329;SDS011;9799;48.214;16.388;2023-04-21T13:30:51;8.10;;;4.60;;
19329;SDS011;9799;48.214;16.388;2023-04-21T13:34:13;4.90;;;3.90;;
19329;SDS011;9799;48.214;16.388;2023-04-21T13:37:35;7.22;;;4.35;;
19329;SDS011;9799;48.214;16.388;2023-04-21T13:40:57;5.80;;;3.97;;
19329;SDS011;9799;48.214;16.388;2023-04-21T13:44:19;8.80;;;5.38;;
19329;SDS011;9799;48.214;16.388;2023-04-21T13:47:41;10.30;;;5.43;;
19329;SDS011;9799;48.214;16.388;2023-04-21T13:51:03;7.28;;;5.10;;
19329;SDS011;9799;48.214;16.388;2023-04-21T13:54:24;6.95;;;5.75;;
19329;SDS011;9799;48.214;16.388;2023-04-21T13:57:46;7.88;;;5.35;;
19329;SDS011;9799;48.214;16.388;2023-04-21T14:01:09;8.27;;;5.20;;
19329;SDS011;9799;48.214;16.388;2023-04-21T14:04:30;10.00;;;5.43;;
19329;SDS011;9799;48.214;16.388;2023-04-21T14:07:51;4.85;;;4.35;;
19329;SDS011;9799;48.214;16.388;2023-04-21T14:11:12;6.22;;;4.93;;
19329;SDS011;9799;48.214;16.388;2023-04-21T14:14:34;11.25;;;5.60;;
19329;SDS011;9799;48.214;16.388;2023-04-21T14:17:56;11.98;;;4.93;;
19329;SDS011;9799;48.214;16.388;2023-04-21T14:21:18;6.90;;;4.78;;
19329;SDS011;9799;48.214;16.388;2023-04-21T14:24:39;5.55;;;4.85;;
19329;SDS011;9799;48.214;16.388;2023-04-21T14:28:01;15.90;;;5.68;;
19329;SDS011;9799;48.214;16.388;2023-04-21T14:31:25;10.10;;;4.95;;
19329;SDS011;9799;48.214;16.388;2023-04-21T14:34:48;6.57;;;4.65;;
19329;SDS011;9799;48.214;16.388;2023-04-21T14:38:11;8.10;;;4.72;;
19329;SDS011;9799;48.214;16.388;2023-04-21T14:41:32;8.05;;;5.68;;
19329;SDS011;9799;48.214;16.388;2023-04-21T14:44:54;12.70;;;5.43;;
19329;SDS011;9799;48.214;16.388;2023-04-21T14:48:15;6.15;;;5.35;;
19329;SDS011;9799;48.214;16.388;2023-04-21T14:51:38;7.95;;;5.45;;
19329;SDS011;9799;48.214;16.388;2023-04-21T14:55:00;8.55;;;5.35;;
19329;SDS011;9799;48.214;16.388;2023-04-21T14:58:22;7.55;;;4.93;;
19329;SDS011;9799;48.214;16.388;2023-04-21T15:01:43;11.68;;;4.90;;
19329;SDS011;9799;48.214;16.388;2023-04-21T15:05:05;8.90;;;5.22;;
19329;SDS011;9799;48.214;16.388;2023-04-21T15:08:28;13.65;;;6.07;;
19329;SDS011;9799;48.214;16.388;2023-04-21T15:11:50;7.15;;;5.65;;
19329;SDS011;9799;48.214;16.388;2023-04-21T15:15:13;7.43;;;5.38;;
19329;SDS011;9799;48.214;16.388;2023-04-21T15:18:34;8.30;;;5.32;;
19329;SDS011;9799;48.214;16.388;2023-04-21T15:21:55;7.78;;;5.28;;
19329;SDS011;9799;48.214;16.388;2023-04-21T15:25:18;15.65;;;6.15;;
19329;SDS011;9799;48.214;16.388;2023-04-21T15:28:39;6.82;;;6.03;;
19329;SDS011;9799;48.214;16.388;2023-04-21T15:32:01;5.70;;;5.07;;
19329;SDS011;9799;48.214;16.388;2023-04-21T15:35:22;9.90;;;5.57;;
19329;SDS011;9799;48.214;16.388;2023-04-21T15:38:43;7.05;;;5.63;;
19329;SDS011;9799;48.214;16.388;2023-04-21T15:42:06;8.65;;;6.45;;
19329;SDS011;9799;48.214;16.388;2023-04-21T15:45:27;7.65;;;5.10;;
19329;SDS011;9799;48.214;16.388;2023-04-21T15:48:49;5.72;;;5.13;;
19329;SDS011;9799;48.214;16.388;2023-04-21T15:52:10;8.30;;;5.43;;
19329;SDS011;9799;48.214;16.388;2023-04-21T15:55:32;9.65;;;5.43;;
19329;SDS011;9799;48.214;16.388;2023-04-21T15:58:55;10.10;;;6.05;;
19329;SDS011;9799;48.214;16.388;2023-04-21T16:02:16;14.88;;;5.93;;
19329;SDS011;9799;48.214;16.388;2023-04-21T16:05:37;9.38;;;6.07;;
19329;SDS011;9799;48.214;16.388;2023-04-21T16:08:58;7.32;;;6.20;;
19329;SDS011;9799;48.214;16.388;2023-04-21T16:12:19;9.32;;;5.30;;
19329;SDS011;9799;48.214;16.388;2023-04-21T16:15:42;6.90;;;5.65;;
19329;SDS011;9799;48.214;16.388;2023-04-21T16:19:04;7.45;;;6.28;;
19329;SDS011;9799;48.214;16.388;2023-04-21T16:22:25;9.35;;;6.10;;
19329;SDS011;9799;48.214;16.388;2023-04-21T16:25:46;7.75;;;5.47;;
19329;SDS011;9799;48.214;16.388;2023-04-21T16:29:07;6.68;;;5.53;;
19329;SDS011;9799;48.214;16.388;2023-04-21T16:32:30;8.77;;;5.75;;
19329;SDS011;9799;48.214;16.388;2023-04-21T16:35:53;12.27;;;5.43;;
19329;SDS011;9799;48.214;16.388;2023-04-21T16:39:15;7.78;;;5.80;;
19329;SDS011;9799;48.214;16.388;2023-04-21T16:42:37;7.18;;;5.30;;
19329;SDS011;9799;48.214;16.388;2023-04-21T16:45:58;9.20;;;5.97;;
19329;SDS011;9799;48.214;16.388;2023-04-21T16:49:20;7.50;;;6.13;;
19329;SDS011;9799;48.214;16.388;2023-04-21T16:52:42;14.43;;;6.78;;
19329;SDS011;9799;48.214;16.388;2023-04-21T16:56:03;13.88;;;5.78;;
19329;SDS011;9799;48.214;16.388;2023-04-21T16:59:24;8.40;;;5.72;;
19329;SDS011;9799;48.214;16.388;2023-04-21T17:02:46;8.15;;;5.88;;
19329;SDS011;9799;48.214;16.388;2023-04-21T17:06:08;9.32;;;5.70;;
19329;SDS011;9799;48.214;16.388;2023-04-21T17:09:30;6.68;;;5.93;;
19329;SDS011;9799;48.214;16.388;2023-04-21T17:12:51;10.32;;;5.90;;
19329;SDS011;9799;48.214;16.388;2023-04-21T17:16:13;7.50;;;5.65;;
19329;SDS011;9799;48.214;16.388;2023-04-21T17:19:35;9.10;;;6.78;;
19329;SDS011;9799;48.214;16.388;2023-04-21T17:22:57;8.98;;;5.65;;
19329;SDS011;9799;48.214;16.388;2023-04-21T17:26:18;10.45;;;5.50;;
19329;SDS011;9799;48.214;16.388;2023-04-21T17:29:40;11.73;;;6.38;;
19329;SDS011;9799;48.214;16.388;2023-04-21T17:33:01;13.77;;;5.83;;
19329;SDS011;9799;48.214;16.388;2023-04-21T17:36:23;13.50;;;5.83;;
19329;SDS011;9799;48.214;16.388;2023-04-21T17:39:47;6.55;;;5.05;;
19329;SDS011;9799;48.214;16.388;2023-04-21T17:43:08;8.40;;;5.83;;
19329;SDS011;9799;48.214;16.388;2023-04-21T17:46:29;7.57;;;6.13;;
19329;SDS011;9799;48.214;16.388;2023-04-21T17:49:50;7.80;;;6.22;;
19329;SDS011;9799;48.214;16.388;2023-04-21T17:53:12;7.63;;;6.07;;
19329;SDS011;9799;48.214;16.388;2023-04-21T17:56:35;8.80;;;6.83;;
19329;SDS011;9799;48.214;16.388;2023-04-21T17:59:56;10.38;;;6.88;;
19329;SDS011;9799;48.214;16.388;2023-04-21T18:03:18;14.33;;;6.93;;
19329;SDS011;9799;48.214;16.388;2023-04-21T18:06:39;9.93;;;7.37;;
19329;SDS011;9799;48.214;16.388;2023-04-21T18:10:00;11.70;;;7.63;;
19329;SDS011;9799;48.214;16.388;2023-04-21T18:13:23;11.25;;;8.43;;
19329;SDS011;9799;48.214;16.388;2023-04-21T18:16:44;12.20;;;7.93;;
19329;SDS011;9799;48.214;16.388;2023-04-21T18:20:06;12.93;;;6.78;;
19329;SDS011;9799;48.214;16.388;2023-04-21T18:23:30;13.97;;;7.00;;
19329;SDS011;9799;48.214;16.388;2023-04-21T18:26:51;11.10;;;8.07;;
19329;SDS011;9799;48.214;16.388;2023-04-21T18:30:14;11.77;;;7.77;;
19329;SDS011;9799;48.214;16.388;2023-04-21T18:33:36;10.70;;;7.70;;
19329;SDS011;9799;48.214;16.388;2023-04-21T18:36:58;9.87;;;7.77;;
19329;SDS011;9799;48.214;16.388;2023-04-21T18:40:20;10.23;;;8.50;;
19329;SDS011;9799;48.214;16.388;2023-04-21T18:43:41;14.47;;;9.23;;
19329;SDS011;9799;48.214;16.388;2023-04-21T18:47:04;12.10;;;8.53;;
19329;SDS011;9799;48.214;16.388;2023-04-21T18:50:25;18.25;;;9.27;;
19329;SDS011;9799;48.214;16.388;2023-04-21T18:53:47;12.60;;;7.87;;
19329;SDS011;9799;48.214;16.388;2023-04-21T18:57:08;11.00;;;8.27;;
19329;SDS011;9799;48.214;16.388;2023-04-21T19:00:30;13.97;;;7.70;;
19329;SDS011;9799;48.214;16.388;2023-04-21T19:03:56;11.23;;;8.83;;
19329;SDS011;9799;48.214;16.388;2023-04-21T19:07:18;12.20;;;8.07;;
19329;SDS011;9799;48.214;16.388;2023-04-21T19:10:40;11.53;;;8.47;;
19329;SDS011;9799;48.214;16.388;2023-04-21T19:14:01;11.83;;;9.63;;
19329;SDS011;9799;48.214;16.388;2023-04-21T19:17:24;13.60;;;8.40;;
19329;SDS011;9799;48.214;16.388;2023-04-21T19:20:47;10.13;;;8.97;;
19329;SDS011;9799;48.214;16.388;2023-04-21T19:24:08;14.97;;;10.30;;
19329;SDS011;9799;48.214;16.388;2023-04-21T19:27:29;15.27;;;9.67;;
19329;SDS011;9799;48.214;16.388;2023-04-21T19:30:51;23.47;;;10.07;;
19329;SDS011;9799;48.214;16.388;2023-04-21T19:34:12;19.10;;;13.07;;
19329;SDS011;9799;48.214;16.388;2023-04-21T19:37:37;15.13;;;10.73;;
19329;SDS011;9799;48.214;16.388;2023-04-21T19:40:59;15.90;;;10.90;;
19329;SDS011;9799;48.214;16.388;2023-04-21T19:44:20;13.93;;;10.53;;
19329;SDS011;9799;48.214;16.388;2023-04-21T19:47:41;13.80;;;9.93;;
19329;SDS011;9799;48.214;16.388;2023-04-21T19:51:03;16.23;;;10.53;;
19329;SDS011;9799;48.214;16.388;2023-04-21T19:54:27;16.37;;;10.20;;